Time;durP1;ratioP1;P1;durP2;ratioP2;P2;SDS_P1;SDS_P2;PMS_P1;PMS_P2;Temp;Humidity;BMP_temperature;BMP_pressure;BME280_temperature;BME280_humidity;BME280_pressure;Samples;Min_cycle;Max_cycle;Signal;HPM_P1;HPM_P2
2022/12/18 06:19:06;;;;;;;10.05;4.95;;;17.60;93.00;;;;;;5605770;23;20605;-73
2022/12/18 06:21:33;;;;;;;11.82;5.05;;;17.60;93.20;;;;;;4900442;29;20226;-73
2022/12/18 06:24:01;;;;;;;9.15;5.47;;;17.60;93.10;;;;;;4900333;29;20213;-72
2022/12/18 06:26:27;;;;;;;8.02;4.65;;;17.60;93.30;;;;;;4900261;29;20221;-72
2022/12/18 06:28:54;;;;;;;6.72;4.93;;;17.60;93.40;;;;;;4900190;29;20226;-72
2022/12/18 06:31:21;;;;;;;7.18;4.32;;;17.60;93.40;;;;;;4900226;29;20300;-72
2022/12/18 06:33:47;;;;;;;10.43;5.00;;;17.60;93.30;;;;;;4922741;23;20228;-76
2022/12/18 06:36:16;;;;;;;9.50;4.38;;;17.60;93.20;;;;;;4900152;29;20208;-76
2022/12/18 06:38:44;;;;;;;9.48;4.63;;;17.60;93.20;;;;;;4900004;29;20629;-76
2022/12/18 06:41:12;;;;;;;6.45;4.55;;;17.60;93.10;;;;;;4900080;29;20217;-76
2022/12/18 06:43:39;;;;;;;14.45;4.53;;;17.60;93.00;;;;;;4899951;29;20226;-75
2022/12/18 06:46:06;;;;;;;5.38;4.38;;;17.60;93.00;;;;;;4899621;29;20701;-76
2022/12/18 06:48:33;;;;;;;6.07;4.80;;;17.60;92.80;;;;;;4899680;29;20569;-76
2022/12/18 06:51:00;;;;;;;9.90;4.20;;;17.60;92.90;;;;;;4899927;29;20209;-76
2022/12/18 06:53:29;;;;;;;6.80;4.18;;;17.60;92.90;;;;;;4899801;29;20229;-76
2022/12/18 06:56:01;;;;;;;5.30;4.25;;;17.50;92.70;;;;;;4900003;29;20198;-76
2022/12/18 06:58:28;;;;;;;4.75;4.10;;;17.50;92.60;;;;;;4899787;29;20190;-76
2022/12/18 07:00:59;;;;;;;4.68;4.10;;;17.50;92.60;;;;;;4899716;29;20210;-76
2022/12/18 07:03:26;;;;;;;8.10;4.88;;;17.50;92.40;;;;;;4899618;29;20230;-76
2022/12/18 07:05:53;;;;;;;6.70;4.85;;;17.50;92.30;;;;;;4899866;29;20252;-76
2022/12/18 07:08:20;;;;;;;11.23;4.63;;;17.50;92.30;;;;;;4899707;29;20236;-76
2022/12/18 07:10:49;;;;;;;7.88;4.90;;;17.50;92.30;;;;;;4900164;29;20202;-76
2022/12/18 07:13:16;;;;;;;10.25;4.45;;;17.50;92.20;;;;;;4899383;29;20281;-76
2022/12/18 07:15:42;;;;;;;4.90;4.30;;;17.50;92.20;;;;;;4899687;29;20232;-76
2022/12/18 07:18:09;;;;;;;11.50;4.82;;;17.50;92.20;;;;;;4899138;29;20701;-76
2022/12/18 07:20:36;;;;;;;14.00;4.55;;;17.50;92.30;;;;;;4899374;29;20214;-76
2022/12/18 07:23:03;;;;;;;16.85;4.93;;;17.60;92.30;;;;;;4899233;29;20232;-76
2022/12/18 07:25:30;;;;;;;5.70;4.80;;;17.60;92.20;;;;;;4898380;29;20233;-76
2022/12/18 07:27:58;;;;;;;8.60;5.05;;;17.60;92.30;;;;;;4899457;29;20210;-76
2022/12/18 07:30:25;;;;;;;4.88;4.15;;;17.50;92.20;;;;;;4898905;29;20213;-76
2022/12/18 07:32:51;;;;;;;6.35;4.40;;;17.50;92.20;;;;;;4898955;29;20217;-76
2022/12/18 07:35:18;;;;;;;7.68;4.85;;;17.50;92.30;;;;;;4899150;29;20197;-76
2022/12/18 07:37:45;;;;;;;8.65;4.45;;;17.50;92.30;;;;;;4899094;29;20205;-76
2022/12/18 07:40:13;;;;;;;6.18;4.07;;;17.50;92.20;;;;;;4899087;29;20217;-76
2022/12/18 07:42:39;;;;;;;12.70;4.57;;;17.50;92.20;;;;;;4898944;29;20206;-75
2022/12/18 07:45:08;;;;;;;28.70;5.40;;;17.60;92.30;;;;;;4899510;29;20202;-76
2022/12/18 07:47:36;;;;;;;11.07;5.10;;;17.50;92.30;;;;;;4898907;29;20292;-76
2022/12/18 07:50:03;;;;;;;25.92;5.97;;;17.60;92.40;;;;;;4898909;29;20233;-76
2022/12/18 07:52:30;;;;;;;17.60;4.72;;;17.60;92.30;;;;;;4899104;29;20212;-76
2022/12/18 07:54:57;;;;;;;10.60;4.35;;;17.60;92.40;;;;;;4898762;29;20226;-76
2022/12/18 07:57:23;;;;;;;14.13;5.45;;;17.60;92.40;;;;;;4898810;29;20212;-76
2022/12/18 07:59:50;;;;;;;17.67;4.80;;;17.60;92.40;;;;;;4899030;29;20206;-75
2022/12/18 08:02:18;;;;;;;10.18;3.95;;;17.60;92.50;;;;;;4898720;29;20205;-75
2022/12/18 08:04:45;;;;;;;8.07;4.25;;;17.70;92.70;;;;;;4898606;29;20234;-75
2022/12/18 08:07:11;;;;;;;10.23;4.28;;;17.60;92.90;;;;;;4898415;29;20234;-74
2022/12/18 08:09:38;;;;;;;14.88;4.85;;;17.70;93.00;;;;;;4898597;29;20213;-75
2022/12/18 08:12:06;;;;;;;12.57;4.85;;;17.70;93.00;;;;;;4898443;29;20209;-75
2022/12/18 08:14:32;;;;;;;11.93;5.45;;;17.60;92.90;;;;;;4898588;29;20230;-76
2022/12/18 08:16:59;;;;;;;12.82;5.82;;;17.70;93.00;;;;;;4898816;29;20204;-74
2022/12/18 08:19:27;;;;;;;16.70;6.95;;;17.70;92.90;;;;;;4898234;29;20213;-75
2022/12/18 08:21:54;;;;;;;28.65;10.55;;;17.70;93.00;;;;;;4898224;29;20673;-76
2022/12/18 08:24:20;;;;;;;24.10;10.55;;;17.80;93.30;;;;;;4898472;29;20229;-76
2022/12/18 08:26:47;;;;;;;21.42;10.25;;;17.90;93.50;;;;;;4898452;29;20228;-77
2022/12/18 08:29:14;;;;;;;23.45;10.10;;;18.00;93.50;;;;;;4898504;29;20581;-77
2022/12/18 08:31:40;;;;;;;29.30;9.73;;;18.10;93.60;;;;;;4898530;29;20209;-77
2022/12/18 08:34:08;;;;;;;21.25;8.30;;;18.10;93.50;;;;;;4898567;29;20229;-77
2022/12/18 08:36:36;;;;;;;22.48;9.05;;;18.20;93.50;;;;;;4901006;29;20212;-78
2022/12/18 08:39:03;;;;;;;18.27;8.98;;;18.20;93.50;;;;;;4905471;29;20685;-78
2022/12/18 08:41:30;;;;;;;27.85;9.50;;;18.30;93.50;;;;;;4904740;29;20205;-78
2022/12/18 08:46:43;;;;;;;18.02;8.45;;;18.40;93.20;;;;;;4902651;29;20220;-77
2022/12/18 08:49:12;;;;;;;21.15;9.10;;;18.50;93.30;;;;;;4902154;29;20205;-76
2022/12/18 08:51:40;;;;;;;18.20;9.07;;;18.50;93.50;;;;;;4901974;29;20569;-76
2022/12/18 08:54:07;;;;;;;24.88;8.68;;;18.50;93.00;;;;;;4902171;29;20230;-77
2022/12/18 08:56:34;;;;;;;26.45;9.20;;;18.50;92.90;;;;;;4902280;29;20214;-77
2022/12/18 08:59:01;;;;;;;28.48;8.85;;;18.50;92.80;;;;;;4902141;29;20289;-77
2022/12/18 09:01:28;;;;;;;14.80;8.38;;;18.50;92.70;;;;;;4902083;29;20276;-77
2022/12/18 09:03:55;;;;;;;28.77;8.85;;;18.60;92.80;;;;;;4901859;29;20236;-77
2022/12/18 09:06:23;;;;;;;22.23;7.78;;;18.60;92.70;;;;;;4901769;29;20233;-76
2022/12/18 09:08:51;;;;;;;21.83;8.13;;;18.60;92.80;;;;;;4901819;29;20213;-73
2022/12/18 09:11:21;;;;;;;32.95;20.45;;;18.60;92.80;;;;;;4902630;29;20212;-75
2022/12/18 09:13:48;;;;;;;39.08;21.27;;;18.50;89.20;;;;;;4902027;29;20228;-77
2022/12/18 09:16:15;;;;;;;37.28;17.80;;;18.10;82.00;;;;;;4901717;29;20213;-74
2022/12/18 09:18:42;;;;;;;38.00;18.83;;;17.70;80.90;;;;;;4901313;29;20700;-75
2022/12/18 09:21:11;;;;;;;39.22;17.20;;;17.60;82.30;;;;;;4901574;29;20206;-76
2022/12/18 09:23:37;;;;;;;28.42;16.75;;;17.60;83.60;;;;;;4901136;29;20757;-75
2022/12/18 09:26:05;;;;;;;29.83;15.48;;;17.70;84.40;;;;;;4901543;29;20222;-77
2022/12/18 09:28:32;;;;;;;26.48;15.65;;;17.90;84.50;;;;;;4901719;29;20232;-77
2022/12/18 09:30:59;;;;;;;25.42;15.07;;;18.10;84.50;;;;;;4901351;29;20209;-77
2022/12/18 09:33:26;;;;;;;33.25;15.25;;;18.10;84.10;;;;;;4900928;29;20233;-76
2022/12/18 09:35:52;;;;;;;24.52;13.25;;;18.30;83.70;;;;;;4900953;29;20580;-76
2022/12/18 09:38:20;;;;;;;29.60;14.60;;;18.30;83.10;;;;;;4901259;29;20213;-77
2022/12/18 09:40:52;;;;;;;23.48;13.40;;;18.40;82.50;;;;;;4901954;29;20209;-77
2022/12/18 09:43:26;;;;;;;25.38;13.10;;;18.50;82.20;;;;;;4901161;29;20285;-77
2022/12/18 09:45:58;;;;;;;22.02;12.45;;;18.60;82.00;;;;;;4901040;29;20190;-77
2022/12/18 09:48:29;;;;;;;23.75;11.65;;;18.70;81.70;;;;;;4900126;29;20194;-77
2022/12/18 09:51:01;;;;;;;27.65;11.80;;;18.70;81.20;;;;;;4901382;29;20201;-77
2022/12/18 09:53:32;;;;;;;18.40;10.65;;;18.80;80.50;;;;;;4900950;29;20226;-78
2022/12/18 09:56:00;;;;;;;25.48;11.52;;;18.90;80.30;;;;;;4900978;29;20190;-75
2022/12/18 09:58:32;;;;;;;18.50;10.80;;;18.90;79.80;;;;;;4900909;29;20656;-75
2022/12/18 10:00:59;;;;;;;17.58;10.20;;;19.00;79.40;;;;;;4900872;29;20186;-76
2022/12/18 10:03:27;;;;;;;20.50;10.32;;;19.00;79.30;;;;;;4900752;29;20221;-76
2022/12/18 10:06:03;;;;;;;15.20;8.67;;;19.20;78.80;;;;;;4900727;29;20622;-77
2022/12/18 10:08:38;;;;;;;15.82;8.55;;;19.10;78.50;;;;;;4900699;29;20185;-76
2022/12/18 10:11:22;;;;;;;16.35;9.02;;;19.20;78.60;;;;;;4900697;29;20224;-76
2022/12/18 10:13:55;;;;;;;16.33;8.63;;;19.20;78.70;;;;;;4900549;29;20237;-75
2022/12/18 10:16:28;;;;;;;15.88;8.27;;;19.40;78.60;;;;;;4900632;29;20196;-75
2022/12/18 10:19:18;;;;;;;14.88;7.68;;;19.40;78.30;;;;;;4900548;29;20196;-75
2022/12/18 10:21:52;;;;;;;13.10;7.63;;;19.40;77.80;;;;;;4900448;29;20186;-75
2022/12/18 10:24:30;;;;;;;13.07;7.18;;;19.40;77.60;;;;;;4900418;29;20232;-75
2022/12/18 10:27:08;;;;;;;11.35;7.43;;;19.40;77.50;;;;;;4900031;29;20209;-76
2022/12/18 10:29:37;;;;;;;13.90;8.02;;;19.50;77.40;;;;;;4900349;29;20189;-76
2022/12/18 10:32:04;;;;;;;9.13;6.82;;;19.60;77.30;;;;;;4900260;29;20205;-76
2022/12/18 10:34:31;;;;;;;10.50;6.45;;;19.50;77.10;;;;;;4899912;29;20233;-76
2022/12/18 10:37:01;;;;;;;11.85;6.90;;;19.60;77.00;;;;;;4900158;29;20210;-76
2022/12/18 10:39:28;;;;;;;10.95;6.35;;;19.60;76.90;;;;;;4900174;29;20190;-76
2022/12/18 10:42:11;;;;;;;10.20;6.10;;;19.60;76.50;;;;;;4900120;29;20221;-76
2022/12/18 10:44:39;;;;;;;8.20;6.03;;;19.60;76.30;;;;;;4900047;29;20263;-76
2022/12/18 10:47:13;;;;;;;11.45;6.35;;;19.70;76.50;;;;;;4899926;29;20236;-76
2022/12/18 10:49:48;;;;;;;13.63;6.13;;;19.60;76.20;;;;;;4900181;29;20230;-77
2022/12/18 10:52:18;;;;;;;10.85;6.72;;;19.80;76.20;;;;;;4900613;29;20232;-77
2022/12/18 10:54:50;;;;;;;11.05;6.88;;;19.80;76.00;;;;;;4900805;29;20233;-77
2022/12/18 10:57:19;;;;;;;13.70;6.28;;;19.80;75.90;;;;;;4899881;29;20186;-77
2022/12/18 10:59:55;;;;;;;10.30;6.18;;;19.80;76.00;;;;;;4899423;29;20213;-77
2022/12/18 11:02:35;;;;;;;11.13;6.00;;;19.80;75.70;;;;;;4899812;29;20599;-77
2022/12/18 11:05:02;;;;;;;9.55;5.93;;;19.80;75.60;;;;;;4899658;29;20221;-77
2022/12/18 11:07:48;;;;;;;9.25;6.20;;;20.00;75.60;;;;;;4899194;29;20789;-77
2022/12/18 11:10:18;;;;;;;11.32;5.35;;;19.80;75.20;;;;;;4899630;29;20649;-77
2022/12/18 11:12:45;;;;;;;8.38;5.80;;;19.80;75.10;;;;;;4899433;29;20205;-77
2022/12/18 11:15:19;;;;;;;10.05;5.85;;;19.90;75.00;;;;;;4899476;29;20540;-76
2022/12/18 11:17:48;;;;;;;8.35;5.95;;;19.90;74.90;;;;;;4899411;29;20541;-75
2022/12/18 11:20:24;;;;;;;16.80;6.40;;;20.00;74.90;;;;;;4899017;29;20209;-75
2022/12/18 11:22:58;;;;;;;9.45;5.90;;;19.80;74.70;;;;;;4899306;29;20192;-75
2022/12/18 11:25:25;;;;;;;8.88;5.97;;;19.90;74.80;;;;;;4899310;29;20202;-75
2022/12/18 11:27:53;;;;;;;8.18;5.47;;;19.90;74.80;;;;;;4899143;29;20229;-75
2022/12/18 11:30:27;;;;;;;7.82;5.55;;;20.00;74.80;;;;;;4899144;29;20209;-75
2022/12/18 11:33:02;;;;;;;10.00;5.47;;;19.90;74.70;;;;;;4898974;29;20194;-75
2022/12/18 11:35:39;;;;;;;6.25;5.20;;;19.90;73.60;;;;;;4898791;29;20629;-75
2022/12/18 11:38:11;;;;;;;11.27;5.40;;;20.00;74.50;;;;;;4899162;29;20193;-76
2022/12/18 11:40:41;;;;;;;6.55;5.30;;;20.00;74.30;;;;;;4899060;29;20196;-76
2022/12/18 11:43:13;;;;;;;8.07;5.30;;;20.00;74.30;;;;;;4898863;29;20232;-75
2022/12/18 11:45:48;;;;;;;7.53;5.20;;;20.10;74.70;;;;;;4898999;29;20197;-75
2022/12/18 11:48:19;;;;;;;9.80;5.65;;;20.10;74.80;;;;;;4898888;29;20210;-75
2022/12/18 11:50:51;;;;;;;5.88;4.90;;;20.20;75.10;;;;;;4898899;29;20201;-75
2022/12/18 11:53:18;;;;;;;8.35;5.40;;;20.30;76.20;;;;;;4899043;29;20286;-76
2022/12/18 11:55:55;;;;;;;12.68;5.20;;;20.20;76.00;;;;;;4898895;29;20216;-75
2022/12/18 11:58:33;;;;;;;11.10;4.95;;;20.30;76.30;;;;;;4898513;29;20190;-75
2022/12/18 12:01:14;;;;;;;7.95;4.90;;;20.30;76.60;;;;;;4898783;29;20193;-76
2022/12/18 12:03:59;;;;;;;10.38;4.43;;;20.20;76.30;;;;;;4898622;29;20705;-76
2022/12/18 12:06:34;;;;;;;12.80;5.45;;;20.30;76.80;;;;;;4898768;29;20216;-76
2022/12/18 12:09:11;;;;;;;24.60;5.72;;;20.30;79.00;;;;;;4898401;29;20186;-76
2022/12/18 12:11:49;;;;;;;37.85;6.85;;;20.40;86.30;;;;;;4898921;29;20197;-77
2022/12/18 12:14:34;;;;;;;34.95;7.68;;;20.40;77.90;;;;;;4899305;29;20232;-77
2022/12/18 12:17:09;;;;;;;23.45;7.45;;;20.40;74.90;;;;;;4898695;29;20189;-77
2022/12/18 12:19:43;;;;;;;30.98;7.93;;;20.40;74.80;;;;;;4898713;29;20197;-76
2022/12/18 12:22:19;;;;;;;31.15;7.90;;;20.50;76.30;;;;;;4898333;29;20661;-76
2022/12/18 12:24:56;;;;;;;32.63;8.32;;;20.50;76.60;;;;;;4898484;29;20224;-76
2022/12/18 12:27:33;;;;;;;26.58;7.53;;;20.70;77.00;;;;;;4898580;29;20220;-76
2022/12/18 12:30:05;;;;;;;28.40;8.40;;;20.60;76.00;;;;;;4898716;29;20189;-77
2022/12/18 12:32:48;;;;;;;26.38;9.60;;;20.50;76.90;;;;;;4898526;29;20194;-77
2022/12/18 12:35:28;;;;;;;38.55;8.50;;;20.70;76.30;;;;;;4936572;23;20233;-73
2022/12/18 12:38:05;;;;;;;41.50;9.32;;;20.70;77.60;;;;;;4898502;29;20185;-73
2022/12/18 12:40:35;;;;;;;33.45;11.10;;;20.80;79.00;;;;;;4898224;29;20641;-73
2022/12/18 12:43:13;;;;;;;29.15;9.70;;;20.90;80.50;;;;;;4898248;29;20681;-75
2022/12/18 12:45:46;;;;;;;27.80;9.93;;;21.10;83.20;;;;;;4898681;29;20221;-74
2022/12/18 12:48:22;;;;;;;24.60;9.32;;;21.20;86.00;;;;;;4898318;29;20562;-72
2022/12/18 12:50:50;;;;;;;36.92;10.07;;;21.30;87.40;;;;;;4898512;29;20298;-72
2022/12/18 12:53:24;;;;;;;30.25;9.93;;;21.40;85.40;;;;;;4900444;29;20217;-71
2022/12/18 12:55:52;;;;;;;21.02;8.20;;;21.20;82.70;;;;;;4900559;29;20229;-71
2022/12/18 12:58:31;;;;;;;21.85;8.18;;;21.10;82.20;;;;;;4900691;29;20262;-72
2022/12/18 13:01:09;;;;;;;17.40;8.25;;;21.00;82.10;;;;;;4900363;29;20221;-73
2022/12/18 13:03:46;;;;;;;22.60;8.85;;;20.90;81.60;;;;;;4899069;29;20216;-74
2022/12/18 13:06:20;;;;;;;18.92;8.10;;;20.80;80.40;;;;;;4898141;29;20222;-74
2022/12/18 13:08:56;;;;;;;22.33;8.13;;;20.80;82.10;;;;;;4898127;29;20561;-74
2022/12/18 13:14:24;;;;;;;16.23;7.90;;;20.50;80.10;;;;;;4898010;29;20228;-76
2022/12/18 13:16:51;;;;;;;22.88;8.25;;;20.50;80.00;;;;;;4898097;29;20241;-73
2022/12/18 13:19:27;;;;;;;15.82;7.82;;;20.30;81.00;;;;;;4898344;29;20209;-72
2022/12/18 13:21:56;;;;;;;17.00;7.15;;;20.30;80.60;;;;;;4898333;29;20209;-74
2022/12/18 13:24:27;;;;;;;13.82;7.13;;;20.20;81.00;;;;;;4901422;29;20316;-72
2022/12/18 13:26:54;;;;;;;19.77;7.82;;;20.00;80.90;;;;;;4901487;29;20190;-74
2022/12/18 13:29:41;;;;;;;22.42;7.80;;;20.00;81.40;;;;;;4901052;29;20257;-74
2022/12/18 13:32:25;;;;;;;40.08;8.05;;;19.90;80.40;;;;;;4900957;29;20788;-74
2022/12/18 13:35:25;;;;;;;29.10;8.15;;;19.80;81.00;;;;;;4899772;29;20285;-73
2022/12/18 13:37:55;;;;;;;32.60;7.82;;;20.20;82.10;;;;;;4900831;29;20638;-73
2022/12/18 13:40:58;;;;;;;27.85;7.53;;;19.90;82.40;;;;;;4903894;29;20209;-73
2022/12/18 13:43:34;;;;;;;22.55;6.38;;;19.80;83.20;;;;;;4908077;29;20713;-71
2022/12/18 13:46:17;;;;;;;27.65;9.00;;;19.70;85.70;;;;;;4901942;29;20228;-71
2022/12/18 13:48:52;;;;;;;21.83;8.45;;;19.70;86.70;;;;;;4907365;29;20214;-71
2022/12/18 13:51:21;;;;;;;29.15;10.05;;;19.70;86.20;;;;;;4907416;29;20253;-72
2022/12/18 13:53:53;;;;;;;15.18;8.40;;;19.70;87.70;;;;;;4906152;29;20231;-72
2022/12/18 13:56:25;;;;;;;30.23;9.20;;;19.70;82.80;;;;;;4906708;29;20601;-73
2022/12/18 13:59:16;;;;;;;29.38;8.88;;;19.70;84.20;;;;;;4909172;29;20213;-72
2022/12/18 14:01:46;;;;;;;20.25;8.57;;;19.60;84.90;;;;;;4908660;29;20194;-72
2022/12/18 14:04:21;;;;;;;29.17;9.27;;;19.60;86.10;;;;;;4910597;29;20198;-75
2022/12/18 14:06:50;;;;;;;26.55;9.60;;;19.70;83.80;;;;;;4909001;29;20221;-73
2022/12/18 14:09:21;;;;;;;25.95;9.20;;;19.60;83.70;;;;;;4908410;29;20256;-73
2022/12/18 14:11:50;;;;;;;24.80;8.55;;;19.60;84.10;;;;;;4908668;29;20206;-74
2022/12/18 14:14:19;;;;;;;24.38;9.20;;;19.50;84.40;;;;;;4906048;29;20216;-73
2022/12/18 14:16:48;;;;;;;22.35;8.73;;;19.50;84.70;;;;;;4906587;29;20206;-74
2022/12/18 14:19:18;;;;;;;23.45;8.93;;;19.40;85.10;;;;;;4906910;29;20201;-73
2022/12/18 14:21:50;;;;;;;23.27;8.48;;;19.40;85.20;;;;;;4906589;29;20201;-74
2022/12/18 14:24:21;;;;;;;20.92;7.97;;;19.50;85.80;;;;;;4904725;29;20650;-74
2022/12/18 14:26:49;;;;;;;22.00;8.23;;;19.40;86.10;;;;;;4906116;29;20651;-74
2022/12/18 14:29:26;;;;;;;33.13;9.30;;;19.40;86.70;;;;;;4906359;29;20241;-74
2022/12/18 14:32:07;;;;;;;23.63;9.63;;;19.40;87.10;;;;;;4905480;29;20551;-74
2022/12/18 14:34:35;;;;;;;19.92;8.02;;;19.30;87.30;;;;;;4906457;29;20241;-75
2022/12/18 14:37:02;;;;;;;15.65;7.13;;;19.20;87.80;;;;;;4905239;29;20209;-75
2022/12/18 14:39:31;;;;;;;24.20;8.30;;;19.20;87.80;;;;;;4906089;29;20209;-73
2022/12/18 14:41:58;;;;;;;19.58;7.63;;;19.10;88.20;;;;;;4905781;29;20672;-73
2022/12/18 14:44:26;;;;;;;21.73;8.55;;;19.20;89.10;;;;;;4905184;29;20333;-73
2022/12/18 14:46:53;;;;;;;21.02;7.57;;;19.40;90.00;;;;;;4905609;29;20209;-73
2022/12/18 14:49:25;;;;;;;19.88;6.85;;;19.40;90.10;;;;;;4905744;29;20228;-75
2022/12/18 14:51:54;;;;;;;24.90;8.35;;;19.60;90.20;;;;;;4902818;29;20221;-76
2022/12/18 14:54:23;;;;;;;18.55;7.35;;;19.70;90.20;;;;;;4899823;29;20213;-74
2022/12/18 14:56:55;;;;;;;18.08;7.32;;;19.80;90.30;;;;;;4899892;29;20228;-74
2022/12/18 14:59:23;;;;;;;19.88;7.30;;;19.90;90.10;;;;;;4899835;29;20189;-74
2022/12/18 15:01:59;;;;;;;21.10;7.22;;;19.80;89.30;;;;;;4899801;29;20232;-75
2022/12/18 15:04:29;;;;;;;25.48;7.30;;;19.70;88.80;;;;;;4901133;29;20225;-74
2022/12/18 15:07:10;;;;;;;16.58;6.75;;;19.70;88.60;;;;;;4899831;29;20669;-73
2022/12/18 15:09:37;;;;;;;15.55;6.97;;;19.60;88.10;;;;;;4899640;29;20210;-74
2022/12/18 15:12:06;;;;;;;15.70;6.88;;;19.60;88.10;;;;;;4899587;29;20212;-74
2022/12/18 15:14:40;;;;;;;16.38;7.07;;;19.50;88.20;;;;;;4899427;29;20281;-74
2022/12/18 15:17:16;;;;;;;14.75;6.15;;;19.50;87.90;;;;;;4899518;29;20190;-76
2022/12/18 15:19:45;;;;;;;15.38;6.50;;;19.50;87.80;;;;;;4899469;29;20197;-71
2022/12/18 15:22:27;;;;;;;12.55;6.63;;;19.40;87.80;;;;;;4899386;29;20209;-72
2022/12/18 15:24:55;;;;;;;19.88;6.97;;;19.50;87.60;;;;;;4899300;29;20229;-72
2022/12/18 15:27:31;;;;;;;12.88;6.30;;;19.40;87.40;;;;;;4899249;29;20232;-72
2022/12/18 15:30:02;;;;;;;12.52;6.00;;;19.20;85.90;;;;;;4899185;29;20209;-72
2022/12/18 15:32:28;;;;;;;11.48;5.60;;;19.30;86.60;;;;;;4898863;29;20630;-74
2022/12/18 15:35:04;;;;;;;13.70;6.53;;;19.30;86.50;;;;;;4898896;29;20233;-73
2022/12/18 15:37:30;;;;;;;15.10;6.45;;;19.30;86.30;;;;;;4898866;29;20228;-76
2022/12/18 15:39:57;;;;;;;9.85;5.72;;;19.20;86.70;;;;;;4899050;29;20208;-75
2022/12/18 15:45:13;;;;;;;10.65;6.10;;;19.10;86.70;;;;;;4898563;29;20232;-74
2022/12/18 15:47:41;;;;;;;13.20;5.82;;;18.90;87.00;;;;;;4898557;29;20206;-74
2022/12/18 15:50:09;;;;;;;11.00;6.47;;;18.80;87.10;;;;;;4898541;29;20581;-74
2022/12/18 15:52:40;;;;;;;15.20;6.63;;;18.80;86.80;;;;;;4898600;29;20681;-75
2022/12/18 15:57:57;;;;;;;10.85;6.00;;;18.70;87.20;;;;;;4898562;29;20184;-75
2022/12/18 16:00:24;;;;;;;10.32;5.65;;;18.70;87.10;;;;;;4898897;29;20212;-76
2022/12/18 16:02:51;;;;;;;13.75;6.35;;;18.60;87.30;;;;;;4898884;29;20209;-76
2022/12/18 16:05:20;;;;;;;12.60;6.40;;;18.60;87.10;;;;;;4898624;29;20226;-75
2022/12/18 16:07:47;;;;;;;9.43;7.45;;;18.60;86.80;;;;;;4898550;29;20205;-75
2022/12/18 16:10:15;;;;;;;8.77;6.10;;;18.60;86.70;;;;;;4898657;29;20202;-75
2022/12/18 16:12:43;;;;;;;11.32;5.97;;;18.50;86.60;;;;;;4898489;29;20205;-75
2022/12/18 16:15:15;;;;;;;9.27;6.15;;;18.50;86.50;;;;;;4898479;29;20323;-75
2022/12/18 16:17:43;;;;;;;10.35;6.40;;;18.50;86.40;;;;;;4898320;29;20719;-75
2022/12/18 16:20:14;;;;;;;14.00;6.57;;;18.50;86.50;;;;;;4898492;29;20227;-75
2022/12/18 16:22:44;;;;;;;12.00;6.47;;;18.50;86.40;;;;;;4898481;29;20294;-75
2022/12/18 16:25:19;;;;;;;13.55;6.22;;;18.50;86.30;;;;;;4898299;29;20604;-75
2022/12/18 16:27:45;;;;;;;11.82;6.32;;;18.50;86.10;;;;;;4898493;29;20196;-75
2022/12/18 16:30:15;;;;;;;10.32;6.32;;;18.50;85.60;;;;;;4898486;29;20311;-75
2022/12/18 16:32:42;;;;;;;11.57;6.72;;;18.50;85.40;;;;;;4899292;29;20197;-75
2022/12/18 16:35:11;;;;;;;13.55;6.53;;;18.40;85.50;;;;;;4898087;29;20233;-75
2022/12/18 16:37:38;;;;;;;9.52;6.13;;;18.40;85.50;;;;;;4898442;29;20240;-75
2022/12/18 16:40:08;;;;;;;11.32;6.28;;;18.40;86.30;;;;;;4898104;29;20684;-75
2022/12/18 16:42:35;;;;;;;12.57;6.30;;;18.40;86.00;;;;;;4898380;29;20212;-75
2022/12/18 16:45:02;;;;;;;8.32;6.20;;;18.40;86.50;;;;;;4898237;29;20225;-75
2022/12/18 16:47:30;;;;;;;12.63;7.40;;;18.40;86.90;;;;;;4898484;29;20237;-76
2022/12/18 16:49:57;;;;;;;14.35;7.55;;;18.30;88.80;;;;;;4898280;29;20218;-74
2022/12/18 16:52:23;;;;;;;10.50;6.97;;;18.30;87.60;;;;;;4898148;29;20210;-75
2022/12/18 16:54:50;;;;;;;10.70;6.65;;;18.30;87.10;;;;;;4897866;29;20233;-75
2022/12/18 16:57:19;;;;;;;9.00;6.65;;;18.30;87.00;;;;;;4899182;29;20221;-75
2022/12/18 16:59:47;;;;;;;10.32;6.78;;;18.30;80.90;;;;;;4901873;29;20206;-74
2022/12/18 17:02:15;;;;;;;10.95;6.75;;;18.30;81.40;;;;;;4901590;29;20584;-74
2022/12/18 17:04:44;;;;;;;9.23;6.70;;;18.30;81.20;;;;;;4902449;29;20229;-74
2022/12/18 17:07:11;;;;;;;10.07;6.82;;;18.30;81.30;;;;;;4901915;29;20214;-75
2022/12/18 17:09:38;;;;;;;9.93;7.43;;;18.20;81.10;;;;;;4901719;29;20221;-77
2022/12/18 17:12:06;;;;;;;8.38;6.80;;;18.20;81.00;;;;;;4901778;29;20205;-74
2022/12/18 17:14:34;;;;;;;8.50;7.20;;;18.20;80.70;;;;;;4903206;29;20280;-71
2022/12/18 17:17:01;;;;;;;10.65;7.30;;;18.30;80.70;;;;;;4908003;29;20201;-72
2022/12/18 17:19:29;;;;;;;9.27;6.65;;;18.20;80.90;;;;;;4906801;29;20289;-72
2022/12/18 17:21:58;;;;;;;7.80;6.72;;;18.20;81.00;;;;;;4907032;29;20210;-71
2022/12/18 17:24:25;;;;;;;9.95;7.57;;;18.10;80.30;;;;;;4906528;29;20236;-71
2022/12/18 17:26:53;;;;;;;11.30;7.30;;;18.10;80.20;;;;;;4905686;29;20206;-71
2022/12/18 17:29:21;;;;;;;13.50;7.88;;;18.10;80.50;;;;;;4903061;29;20217;-71
2022/12/18 17:31:49;;;;;;;13.38;7.68;;;18.10;80.20;;;;;;4906901;29;20581;-71
2022/12/18 17:34:16;;;;;;;9.77;7.50;;;18.10;80.10;;;;;;4904646;29;20689;-71
2022/12/18 17:36:43;;;;;;;8.45;6.78;;;18.10;79.60;;;;;;4906388;29;20198;-71
2022/12/18 17:39:19;;;;;;;9.45;6.93;;;18.10;79.30;;;;;;4906511;29;20688;-70
2022/12/18 17:41:46;;;;;;;9.13;7.40;;;18.10;79.20;;;;;;4907293;29;20200;-71
2022/12/18 17:44:14;;;;;;;11.60;6.80;;;18.10;79.50;;;;;;4907392;29;20546;-72
2022/12/18 17:46:42;;;;;;;9.13;7.25;;;18.10;79.60;;;;;;4906957;29;20209;-71
2022/12/18 17:49:10;;;;;;;9.18;7.15;;;18.10;79.60;;;;;;4906499;29;20233;-71
2022/12/18 17:51:37;;;;;;;10.75;7.68;;;18.10;79.70;;;;;;4904721;29;20232;-70
2022/12/18 17:54:05;;;;;;;10.85;7.13;;;18.10;79.50;;;;;;4905183;29;20208;-71
2022/12/18 17:56:34;;;;;;;9.77;7.38;;;18.00;79.00;;;;;;4906885;29;20213;-71
2022/12/18 17:59:01;;;;;;;7.25;5.90;;;18.00;79.30;;;;;;4906851;29;20209;-71
2022/12/18 18:01:29;;;;;;;10.52;7.20;;;18.10;79.40;;;;;;4906407;29;20210;-71
2022/12/18 18:03:56;;;;;;;8.40;6.75;;;18.00;79.20;;;;;;4906604;29;20214;-71
2022/12/18 18:06:23;;;;;;;9.90;7.32;;;18.00;79.60;;;;;;4905024;29;20581;-71
2022/12/18 18:08:51;;;;;;;9.15;7.15;;;18.10;79.30;;;;;;4900063;29;20222;-71
2022/12/18 18:14:07;;;;;;;9.18;6.90;;;18.10;79.20;;;;;;4900602;29;20257;-72
2022/12/18 18:16:36;;;;;;;8.55;6.50;;;18.00;79.20;;;;;;4900580;29;20209;-71
2022/12/18 18:19:05;;;;;;;7.85;6.47;;;18.00;80.00;;;;;;4900557;29;20205;-71
2022/12/18 18:21:33;;;;;;;10.00;7.43;;;18.00;81.10;;;;;;4900221;29;20201;-71
2022/12/18 18:24:01;;;;;;;10.52;6.88;;;18.00;80.50;;;;;;4900506;29;20212;-71
2022/12/18 18:26:30;;;;;;;10.00;7.07;;;18.00;81.00;;;;;;4900182;29;20722;-71
2022/12/18 18:28:57;;;;;;;9.27;6.50;;;18.00;82.90;;;;;;4900463;29;20226;-71
2022/12/18 18:31:26;;;;;;;9.15;6.57;;;18.00;82.00;;;;;;4900080;29;20704;-70
2022/12/18 18:33:53;;;;;;;14.85;6.68;;;17.90;78.60;;;;;;4900250;29;20210;-70
2022/12/18 18:36:20;;;;;;;13.43;6.50;;;18.00;79.00;;;;;;4900365;29;20237;-72
2022/12/18 18:38:46;;;;;;;11.20;6.63;;;18.00;79.50;;;;;;4900236;29;20216;-72
2022/12/18 18:41:13;;;;;;;12.65;7.78;;;18.00;79.70;;;;;;4900181;29;20573;-73
2022/12/18 18:43:40;;;;;;;15.20;6.82;;;18.10;79.30;;;;;;4900118;29;20212;-73
2022/12/18 18:46:07;;;;;;;11.02;7.40;;;18.10;79.00;;;;;;4900019;29;20226;-73
2022/12/18 18:48:36;;;;;;;9.43;7.20;;;18.10;78.90;;;;;;4900034;29;20217;-72
2022/12/18 18:51:06;;;;;;;8.38;6.85;;;18.00;79.40;;;;;;4899927;29;20232;-72
2022/12/18 18:53:36;;;;;;;9.93;6.97;;;18.00;78.50;;;;;;4899963;29;20205;-72
2022/12/18 18:56:04;;;;;;;9.95;7.13;;;18.00;78.40;;;;;;4899890;29;20226;-73
2022/12/18 18:58:30;;;;;;;12.05;6.88;;;18.00;78.20;;;;;;4899844;29;20573;-73
2022/12/18 19:00:59;;;;;;;11.38;7.03;;;18.00;78.30;;;;;;4899815;29;20202;-73
2022/12/18 19:03:26;;;;;;;11.52;7.05;;;18.00;78.20;;;;;;4899414;29;20205;-73
2022/12/18 19:05:58;;;;;;;12.32;7.47;;;17.90;78.30;;;;;;4899540;29;20739;-74
2022/12/18 19:08:26;;;;;;;15.68;7.30;;;17.90;78.30;;;;;;4899717;29;20194;-73
2022/12/18 19:10:54;;;;;;;14.13;7.80;;;18.10;78.40;;;;;;4899241;29;20717;-72
2022/12/18 19:13:20;;;;;;;11.77;6.80;;;17.90;78.00;;;;;;4899569;29;20209;-73
2022/12/18 19:15:47;;;;;;;13.88;7.25;;;17.90;78.20;;;;;;4899135;29;20757;-73
2022/12/18 19:18:14;;;;;;;11.18;7.10;;;17.90;78.10;;;;;;4899451;29;20205;-73
2022/12/18 19:20:41;;;;;;;9.57;6.93;;;17.90;77.90;;;;;;4899351;29;20209;-73
2022/12/18 19:23:09;;;;;;;12.20;7.75;;;17.90;77.90;;;;;;4899054;29;20669;-73
2022/12/18 19:25:37;;;;;;;8.88;6.97;;;17.90;77.90;;;;;;4899929;29;20233;-73